Time;durP1;ratioP1;P1;durP2;ratioP2;P2;SDS_P1;SDS_P2;PMS_P1;PMS_P2;Temp;Humidity;BMP_temperature;BMP_pressure;BME280_temperature;BME280_humidity;BME280_pressure;Samples;Min_cycle;Max_cycle;Signal;HPM_P1;HPM_P2
2023/07/14 00:01:21;;;;;;;4.10;2.38;;;16.10;99.90;;;;;;5053625;28;20478;-52
2023/07/14 00:03:47;;;;;;;6.00;2.53;;;16.10;99.90;;;;;;5053627;28;20043;-51
2023/07/14 00:06:14;;;;;;;3.60;2.22;;;16.20;99.90;;;;;;5053436;28;20116;-50
2023/07/14 00:08:40;;;;;;;4.40;1.90;;;16.20;99.90;;;;;;5053485;28;20029;-51
2023/07/14 00:11:24;;;;;;;4.07;2.00;;;16.20;99.90;;;;;;5053541;28;20543;-52
2023/07/14 00:13:52;;;;;;;7.55;2.67;;;16.20;99.90;;;;;;5053491;28;20039;-52
2023/07/14 00:16:22;;;;;;;3.60;1.85;;;16.10;99.90;;;;;;5053066;28;20072;-52
2023/07/14 00:18:47;;;;;;;;;;;16.10;99.90;;;;;;5053866;28;20025;-51
2023/07/14 00:21:17;;;;;;;5.03;2.03;;;16.00;99.90;;;;;;5052035;28;19962;-51
2023/07/14 00:23:43;;;;;;;;;;;16.00;99.90;;;;;;5053871;28;20033;-53
2023/07/14 00:26:15;;;;;;;3.20;1.50;;;16.00;99.90;;;;;;5053245;28;20384;-53
2023/07/14 00:28:42;;;;;;;6.40;2.22;;;16.00;99.90;;;;;;5053315;28;20029;-50
2023/07/14 00:31:13;;;;;;;3.88;1.88;;;16.10;99.90;;;;;;5052734;28;20410;-53
2023/07/14 00:33:39;;;;;;;4.35;2.10;;;16.10;99.90;;;;;;5035162;28;20026;-53
2023/07/14 00:36:07;;;;;;;3.85;1.80;;;16.10;99.90;;;;;;5035057;28;20036;-51
2023/07/14 00:38:36;;;;;;;3.40;1.83;;;16.10;99.90;;;;;;5039184;28;20120;-53
2023/07/14 00:41:07;;;;;;;4.40;1.85;;;16.20;99.90;;;;;;5057324;28;20032;-53
2023/07/14 00:43:34;;;;;;;5.68;2.25;;;16.10;99.90;;;;;;5056869;28;20021;-53
2023/07/14 00:46:01;;;;;;;3.78;2.38;;;16.10;99.90;;;;;;5038912;28;20440;-51
2023/07/14 00:48:29;;;;;;;4.55;1.90;;;16.10;99.90;;;;;;5039415;28;20076;-52
2023/07/14 00:51:12;;;;;;;4.43;1.70;;;16.00;99.90;;;;;;5057167;28;20392;-53
2023/07/14 00:53:41;;;;;;;5.07;2.08;;;16.00;99.90;;;;;;5039027;28;20393;-53
2023/07/14 00:56:12;;;;;;;4.22;2.05;;;15.90;99.90;;;;;;5039189;28;20029;-53
2023/07/14 00:58:45;;;;;;;5.60;2.10;;;15.80;99.90;;;;;;5039036;28;20029;-53
2023/07/14 01:01:13;;;;;;;2.47;1.50;;;15.80;99.90;;;;;;5039117;28;20363;-54
2023/07/14 01:03:41;;;;;;;5.78;2.40;;;15.70;99.90;;;;;;5038476;28;20067;-53
2023/07/14 01:06:12;;;;;;;3.35;1.52;;;15.60;99.90;;;;;;5038182;28;20032;-50
2023/07/14 01:08:46;;;;;;;3.67;2.00;;;15.50;99.90;;;;;;5056593;28;20425;-50
2023/07/14 01:11:12;;;;;;;3.17;1.65;;;15.40;99.90;;;;;;5038805;28;20253;-51
2023/07/14 01:13:38;;;;;;;5.90;2.20;;;15.40;99.90;;;;;;5037962;28;20040;-51
2023/07/14 01:16:04;;;;;;;4.05;1.90;;;15.40;99.90;;;;;;5038036;28;20029;-53
2023/07/14 01:18:29;;;;;;;2.28;1.60;;;15.40;99.90;;;;;;5038441;28;20025;-53
2023/07/14 01:20:55;;;;;;;5.18;1.98;;;15.40;99.90;;;;;;5038288;28;20025;-52
2023/07/14 01:23:43;;;;;;;3.80;2.13;;;15.40;99.90;;;;;;5038730;28;20461;-52
2023/07/14 01:26:45;;;;;;;3.92;1.80;;;15.40;99.90;;;;;;5037905;28;20045;-50
2023/07/14 01:29:10;;;;;;;2.88;1.85;;;15.40;99.90;;;;;;5056578;28;20063;-53
2023/07/14 01:31:36;;;;;;;4.57;1.83;;;15.30;99.90;;;;;;5055965;28;20072;-52
2023/07/14 01:34:02;;;;;;;3.60;1.85;;;15.30;99.90;;;;;;5037823;28;20499;-53
2023/07/14 01:36:28;;;;;;;3.78;2.00;;;15.30;99.90;;;;;;5037867;28;20033;-51
2023/07/14 01:38:55;;;;;;;3.22;1.85;;;15.20;99.90;;;;;;5038556;28;20104;-51
2023/07/14 01:41:22;;;;;;;4.30;2.13;;;15.20;99.90;;;;;;5038141;28;20087;-53
2023/07/14 01:43:48;;;;;;;2.95;1.85;;;15.20;99.90;;;;;;5056500;28;20082;-52
2023/07/14 01:46:19;;;;;;;3.88;2.20;;;15.10;99.90;;;;;;5038344;28;20029;-51
2023/07/14 01:48:51;;;;;;;4.40;1.92;;;15.10;99.90;;;;;;5037354;28;20029;-50
2023/07/14 01:51:17;;;;;;;5.93;1.88;;;15.00;99.90;;;;;;5037327;28;20037;-48
2023/07/14 01:53:55;;;;;;;4.38;2.20;;;14.90;99.90;;;;;;5037303;28;20064;-49
2023/07/14 01:56:24;;;;;;;5.13;2.17;;;14.90;99.90;;;;;;5055736;28;20025;-52
2023/07/14 01:58:57;;;;;;;4.20;2.00;;;14.90;99.90;;;;;;5037864;28;20052;-47
2023/07/14 02:01:25;;;;;;;4.38;2.40;;;14.90;99.90;;;;;;5037150;28;20040;-52
2023/07/14 02:03:53;;;;;;;3.90;2.10;;;14.90;99.90;;;;;;5037581;28;20124;-52
2023/07/14 02:06:19;;;;;;;3.72;1.95;;;14.90;99.90;;;;;;5055042;28;20036;-52
2023/07/14 02:08:46;;;;;;;3.85;2.05;;;14.90;99.90;;;;;;5037868;28;20033;-51
2023/07/14 02:11:23;;;;;;;5.05;1.95;;;15.00;99.90;;;;;;5037568;28;20067;-51
2023/07/14 02:13:51;;;;;;;3.63;1.70;;;15.00;99.90;;;;;;5037631;28;20036;-51
2023/07/14 02:16:17;;;;;;;5.18;1.88;;;15.10;99.90;;;;;;5055418;28;20044;-51
2023/07/14 02:18:44;;;;;;;4.25;1.90;;;15.20;99.90;;;;;;5037269;28;20194;-51
2023/07/14 02:21:12;;;;;;;4.28;1.95;;;15.20;99.90;;;;;;5037608;28;20033;-52
2023/07/14 02:23:40;;;;;;;3.35;1.55;;;15.00;99.90;;;;;;5055002;28;20146;-52
2023/07/14 02:26:26;;;;;;;4.68;2.03;;;15.00;99.90;;;;;;5037311;28;20045;-51
2023/07/14 02:28:52;;;;;;;5.75;2.38;;;14.90;99.90;;;;;;5037351;28;20040;-51
2023/07/14 02:31:30;;;;;;;5.43;2.10;;;15.00;99.90;;;;;;5037104;28;20037;-52
2023/07/14 02:33:56;;;;;;;4.70;1.83;;;15.10;99.90;;;;;;5055216;28;20059;-52
2023/07/14 02:36:31;;;;;;;6.18;2.20;;;15.00;99.90;;;;;;5055190;28;20461;-48
2023/07/14 02:38:57;;;;;;;5.57;1.90;;;15.00;99.90;;;;;;5036847;28;20033;-47
2023/07/14 02:41:35;;;;;;;5.93;2.10;;;15.10;99.90;;;;;;5019987;28;20032;-49
2023/07/14 02:44:03;;;;;;;5.45;2.22;;;15.00;99.90;;;;;;5054907;28;20029;-52
2023/07/14 02:46:52;;;;;;;4.65;2.03;;;15.00;99.90;;;;;;5036852;28;20036;-51
2023/07/14 02:49:18;;;;;;;4.70;1.92;;;15.00;99.90;;;;;;5054783;28;20032;-51
2023/07/14 02:51:44;;;;;;;5.72;2.53;;;15.00;99.90;;;;;;5054634;28;20043;-52
2023/07/14 02:54:10;;;;;;;3.58;1.92;;;15.00;99.90;;;;;;5054541;28;20021;-52
2023/07/14 02:56:36;;;;;;;4.07;1.92;;;15.00;99.90;;;;;;5054555;28;20489;-52
2023/07/14 02:59:02;;;;;;;5.40;2.00;;;15.00;99.90;;;;;;5036955;28;20437;-52
2023/07/14 03:01:32;;;;;;;4.03;2.00;;;15.00;99.90;;;;;;5036136;28;20056;-52
2023/07/14 03:03:59;;;;;;;3.95;2.30;;;14.90;99.90;;;;;;5036165;28;20040;-50
2023/07/14 03:06:25;;;;;;;6.95;2.40;;;15.00;99.90;;;;;;5036890;28;20029;-52
2023/07/14 03:08:50;;;;;;;6.15;2.72;;;14.90;99.90;;;;;;5036762;28;20060;-52
2023/07/14 03:11:16;;;;;;;5.25;2.05;;;14.90;99.90;;;;;;5036793;28;20033;-52
2023/07/14 03:13:43;;;;;;;3.95;2.17;;;15.00;99.90;;;;;;5054271;28;20029;-50
2023/07/14 03:16:11;;;;;;;5.40;2.05;;;15.00;99.90;;;;;;5035979;28;20051;-51
2023/07/14 03:18:36;;;;;;;5.35;2.25;;;15.00;99.90;;;;;;5054289;28;20401;-52
2023/07/14 03:21:03;;;;;;;2.78;1.75;;;15.00;99.90;;;;;;5036489;28;20052;-52
2023/07/14 03:23:30;;;;;;;3.83;1.88;;;15.00;99.90;;;;;;5053555;28;20409;-52
2023/07/14 03:26:03;;;;;;;4.00;1.73;;;15.00;99.90;;;;;;5053719;28;20119;-51
2023/07/14 03:28:30;;;;;;;6.55;2.47;;;15.00;99.90;;;;;;5054175;28;20472;-51
2023/07/14 03:30:55;;;;;;;4.47;1.90;;;15.00;99.90;;;;;;5053757;28;20435;-52
2023/07/14 03:33:21;;;;;;;7.00;2.20;;;15.10;99.90;;;;;;5053811;28;20085;-51
2023/07/14 03:35:47;;;;;;;6.00;2.25;;;15.10;99.90;;;;;;5053949;28;20044;-51
2023/07/14 03:38:13;;;;;;;4.22;1.80;;;15.10;99.90;;;;;;5036055;28;20055;-52
2023/07/14 03:40:39;;;;;;;5.13;2.20;;;15.20;99.90;;;;;;5054176;28;20029;-52
2023/07/14 03:43:05;;;;;;;6.40;2.33;;;15.20;99.90;;;;;;5054307;28;20029;-52
2023/07/14 03:45:32;;;;;;;4.43;2.40;;;15.10;99.90;;;;;;5035864;28;20059;-49
2023/07/14 03:47:57;;;;;;;5.10;2.20;;;15.20;99.90;;;;;;5052743;28;20037;-46
2023/07/14 03:50:23;;;;;;;5.45;2.00;;;15.10;99.90;;;;;;5054013;28;20031;-47
2023/07/14 03:52:49;;;;;;;5.20;2.08;;;15.10;99.90;;;;;;5054020;28;20075;-48
2023/07/14 03:55:15;;;;;;;4.45;2.10;;;15.20;99.90;;;;;;5035950;28;20445;-51
2023/07/14 03:57:41;;;;;;;3.08;1.85;;;15.20;99.90;;;;;;5053640;28;20048;-47
2023/07/14 04:00:14;;;;;;;4.10;2.00;;;15.20;99.90;;;;;;5053974;28;20029;-48
2023/07/14 04:02:46;;;;;;;2.50;1.67;;;15.20;99.90;;;;;;5054121;28;20101;-48
2023/07/14 04:05:13;;;;;;;5.35;2.38;;;15.20;99.90;;;;;;5035802;28;20394;-46
2023/07/14 04:07:41;;;;;;;4.55;1.88;;;15.20;99.90;;;;;;5036132;28;20480;-51
2023/07/14 04:10:08;;;;;;;5.40;2.03;;;15.20;99.90;;;;;;5036441;28;20397;-49
2023/07/14 04:12:35;;;;;;;3.58;2.00;;;15.30;99.90;;;;;;5055471;28;20103;-50
2023/07/14 04:15:01;;;;;;;4.57;1.83;;;15.30;99.90;;;;;;5057528;28;20108;-46
2023/07/14 04:17:29;;;;;;;4.80;2.42;;;15.40;99.90;;;;;;5057700;28;20435;-48
2023/07/14 04:19:54;;;;;;;4.07;2.55;;;15.40;99.90;;;;;;5057959;28;20155;-49
2023/07/14 04:22:20;;;;;;;7.03;2.22;;;15.40;99.90;;;;;;5058097;28;20068;-47
2023/07/14 04:24:46;;;;;;;5.18;2.08;;;15.40;99.90;;;;;;5058175;28;20526;-46
2023/07/14 04:27:12;;;;;;;5.13;1.85;;;15.40;99.90;;;;;;5057525;28;20428;-47
2023/07/14 04:29:39;;;;;;;5.13;1.88;;;15.50;99.90;;;;;;5058113;28;20037;-48
2023/07/14 04:32:05;;;;;;;6.57;2.17;;;15.50;99.90;;;;;;5057448;28;20047;-47
2023/07/14 04:34:32;;;;;;;7.45;2.10;;;15.60;99.90;;;;;;5039618;28;20085;-51
2023/07/14 04:36:57;;;;;;;5.13;2.20;;;15.60;99.90;;;;;;5057610;28;20038;-48
2023/07/14 04:39:23;;;;;;;4.18;2.15;;;15.60;99.90;;;;;;5057830;28;20489;-48
2023/07/14 04:41:49;;;;;;;4.47;2.20;;;15.70;99.90;;;;;;5057250;28;20040;-48
2023/07/14 04:44:16;;;;;;;6.95;2.15;;;15.70;99.90;;;;;;5057844;28;20033;-47
2023/07/14 04:46:43;;;;;;;4.45;1.90;;;15.80;99.90;;;;;;5057469;28;20059;-49
2023/07/14 04:49:10;;;;;;;8.63;2.45;;;15.80;99.90;;;;;;5057365;28;20091;-49
2023/07/14 04:51:37;;;;;;;3.03;2.10;;;15.80;99.90;;;;;;5039339;28;20378;-48
2023/07/14 04:54:04;;;;;;;3.95;1.85;;;15.90;99.90;;;;;;5057165;28;20425;-48
2023/07/14 04:56:30;;;;;;;5.85;2.05;;;15.90;99.90;;;;;;5057864;28;20104;-46
2023/07/14 04:58:56;;;;;;;5.18;2.47;;;15.90;99.90;;;;;;5057299;28;20025;-47
2023/07/14 05:01:22;;;;;;;4.90;1.70;;;15.90;99.90;;;;;;5056842;28;20385;-49
2023/07/14 05:03:48;;;;;;;4.22;2.15;;;16.00;99.90;;;;;;5057095;28;20033;-51
2023/07/14 05:06:14;;;;;;;4.35;2.10;;;16.00;99.90;;;;;;5057106;28;20083;-47
2023/07/14 05:08:40;;;;;;;2.90;1.70;;;16.10;99.90;;;;;;5057286;28;20385;-50
2023/07/14 05:11:06;;;;;;;9.23;2.53;;;16.10;99.90;;;;;;5056981;28;20036;-48
2023/07/14 05:13:32;;;;;;;3.30;2.20;;;16.10;99.90;;;;;;5056298;28;20029;-52
2023/07/14 05:15:58;;;;;;;6.07;2.10;;;16.10;99.90;;;;;;5056811;28;20025;-50
2023/07/14 05:18:24;;;;;;;5.47;2.40;;;16.20;99.90;;;;;;5038567;28;20033;-46
2023/07/14 05:20:51;;;;;;;6.10;2.33;;;16.30;99.90;;;;;;5056602;28;20045;-47
2023/07/14 05:23:17;;;;;;;31.83;16.00;;;16.30;99.90;;;;;;5056350;28;20025;-49
2023/07/14 05:25:42;;;;;;;6.15;3.10;;;16.30;99.90;;;;;;5056327;28;20063;-51
2023/07/14 05:28:09;;;;;;;4.93;2.80;;;16.40;99.90;;;;;;5057054;28;20033;-49
2023/07/14 05:30:36;;;;;;;6.75;2.88;;;16.40;99.90;;;;;;5056809;28;20033;-51
2023/07/14 05:33:02;;;;;;;5.68;2.67;;;16.50;99.90;;;;;;5056089;28;20033;-49
2023/07/14 05:35:29;;;;;;;7.43;2.47;;;16.50;99.90;;;;;;5056835;28;20037;-51
2023/07/14 05:37:56;;;;;;;4.75;2.33;;;16.60;99.90;;;;;;5056604;28;20301;-47
2023/07/14 05:40:22;;;;;;;6.20;2.67;;;16.60;99.90;;;;;;5056283;28;20104;-52
2023/07/14 05:42:48;;;;;;;4.95;2.35;;;16.70;99.90;;;;;;5056116;28;20049;-51
2023/07/14 05:45:14;;;;;;;5.53;2.45;;;16.70;99.90;;;;;;5056334;28;20064;-48
2023/07/14 05:47:44;;;;;;;10.02;3.20;;;16.70;99.90;;;;;;5055973;28;20112;-52
2023/07/14 05:50:10;;;;;;;5.60;2.13;;;16.80;99.90;;;;;;5056306;28;20035;-52
2023/07/14 05:52:36;;;;;;;4.38;2.13;;;16.80;99.90;;;;;;5056310;28;20037;-52
2023/07/14 05:55:03;;;;;;;6.47;2.05;;;16.80;99.90;;;;;;5056079;28;20028;-50
2023/07/14 05:57:31;;;;;;;5.70;2.25;;;16.90;99.90;;;;;;5055823;28;20029;-50
2023/07/14 05:59:56;;;;;;;5.97;2.10;;;17.00;99.90;;;;;;5055808;28;20103;-51
2023/07/14 06:02:22;;;;;;;5.50;2.30;;;17.10;99.90;;;;;;5055971;28;20520;-52
2023/07/14 06:04:48;;;;;;;6.50;2.22;;;17.20;99.90;;;;;;5055561;28;20052;-55
2023/07/14 06:07:15;;;;;;;5.30;2.42;;;17.30;99.90;;;;;;5055870;28;20029;-51
2023/07/14 06:09:41;;;;;;;22.52;10.05;;;17.50;99.90;;;;;;5055436;28;20029;-52
2023/07/14 06:12:09;;;;;;;14.88;6.32;;;17.60;99.90;;;;;;5037470;28;20035;-50
2023/07/14 06:14:36;;;;;;;5.10;2.50;;;17.70;99.90;;;;;;5054678;28;20539;-51
2023/07/14 06:17:03;;;;;;;3.97;1.95;;;17.90;99.90;;;;;;5055336;28;20040;-52
2023/07/14 06:19:29;;;;;;;4.28;2.22;;;18.00;99.90;;;;;;5021062;28;20068;-51
2023/07/14 06:21:56;;;;;;;6.75;2.30;;;18.00;99.90;;;;;;5055305;28;20071;-50
2023/07/14 06:24:22;;;;;;;4.78;2.03;;;18.00;99.90;;;;;;5055366;28;20389;-55
2023/07/14 06:26:48;;;;;;;7.95;3.42;;;18.10;99.90;;;;;;5055689;28;20020;-49
2023/07/14 06:29:14;;;;;;;7.90;3.70;;;18.30;99.90;;;;;;5055324;28;20568;-51
2023/07/14 06:31:40;;;;;;;7.47;3.40;;;18.40;99.90;;;;;;5055364;28;20029;-52
2023/07/14 06:34:06;;;;;;;3.45;2.20;;;18.50;99.90;;;;;;5054685;28;20029;-52
2023/07/14 06:36:32;;;;;;;6.22;2.65;;;18.60;99.90;;;;;;5054395;28;20029;-51
2023/07/14 06:38:58;;;;;;;4.60;2.47;;;18.50;99.90;;;;;;5055121;28;20036;-52
2023/07/14 06:41:23;;;;;;;8.18;2.35;;;18.60;99.90;;;;;;5055177;28;20107;-52
2023/07/14 06:43:49;;;;;;;5.63;2.30;;;18.70;99.90;;;;;;5054724;28;20045;-52
2023/07/14 06:46:15;;;;;;;6.03;2.90;;;18.80;99.90;;;;;;5036445;28;20033;-51
2023/07/14 06:48:40;;;;;;;3.88;1.90;;;18.90;99.90;;;;;;5054899;28;20068;-53
2023/07/14 06:51:06;;;;;;;5.80;2.15;;;19.10;99.90;;;;;;5054614;28;20056;-52
2023/07/14 06:53:31;;;;;;;6.43;3.03;;;19.10;99.90;;;;;;5054193;28;20397;-52
2023/07/14 06:55:57;;;;;;;4.50;2.15;;;19.10;99.90;;;;;;5054649;28;20054;-49
2023/07/14 06:58:25;;;;;;;8.05;2.25;;;19.20;99.90;;;;;;5054576;28;20028;-52
2023/07/14 07:00:51;;;;;;;6.43;2.22;;;19.20;99.90;;;;;;5054523;28;20291;-53
2023/07/14 07:03:16;;;;;;;8.52;3.10;;;19.20;99.90;;;;;;5054302;28;20025;-53
2023/07/14 07:05:43;;;;;;;11.20;2.55;;;19.20;99.90;;;;;;5054036;28;20104;-52
2023/07/14 07:08:14;;;;;;;4.60;2.03;;;19.20;99.90;;;;;;5054301;28;20048;-52
2023/07/14 07:10:41;;;;;;;5.38;2.20;;;19.30;99.90;;;;;;5053958;28;20036;-53
2023/07/14 07:13:08;;;;;;;6.18;2.05;;;19.60;99.90;;;;;;5053576;28;20033;-52
2023/07/14 07:15:34;;;;;;;4.80;2.03;;;19.60;99.90;;;;;;5054536;28;20021;-51
2023/07/14 07:17:59;;;;;;;5.28;1.65;;;19.80;99.90;;;;;;5054322;28;20086;-49
2023/07/14 07:20:25;;;;;;;4.53;2.00;;;19.90;99.90;;;;;;5053798;28;20040;-51
2023/07/14 07:22:50;;;;;;;7.32;2.42;;;19.90;99.90;;;;;;5054050;28;20102;-50
2023/07/14 07:25:16;;;;;;;4.25;1.90;;;19.80;99.90;;;;;;5053964;28;20029;-53
2023/07/14 07:27:42;;;;;;;5.18;1.85;;;19.90;99.90;;;;;;5054143;28;20025;-49
2023/07/14 07:30:09;;;;;;;4.22;1.90;;;20.00;99.90;;;;;;5054279;28;20040;-47
2023/07/14 07:32:36;;;;;;;5.10;1.98;;;20.00;99.90;;;;;;5053710;28;20379;-50
2023/07/14 07:35:03;;;;;;;5.00;2.10;;;20.10;99.90;;;;;;5053724;28;20067;-47
2023/07/14 07:37:33;;;;;;;4.05;2.30;;;20.20;99.90;;;;;;5053206;28;20021;-51
2023/07/14 07:40:00;;;;;;;7.90;2.65;;;20.30;99.90;;;;;;5036158;28;20512;-51
2023/07/14 07:42:26;;;;;;;4.18;2.30;;;20.40;99.90;;;;;;5053153;28;20029;-51
2023/07/14 07:44:52;;;;;;;5.25;1.92;;;20.40;99.90;;;;;;5053484;28;20477;-49
2023/07/14 07:47:18;;;;;;;5.85;2.13;;;20.40;99.90;;;;;;5052883;28;20031;-47
2023/07/14 07:49:43;;;;;;;5.40;2.20;;;20.60;99.90;;;;;;5053982;28;20059;-49
2023/07/14 07:52:12;;;;;;;5.78;2.28;;;20.70;99.90;;;;;;5054042;28;20044;-52
2023/07/14 07:54:41;;;;;;;6.30;2.17;;;20.80;99.90;;;;;;5053239;28;20056;-51
2023/07/14 07:57:08;;;;;;;6.88;2.08;;;20.80;99.90;;;;;;5053788;28;20123;-52
2023/07/14 07:59:33;;;;;;;7.03;1.80;;;20.80;99.90;;;;;;5053626;28;20205;-52
2023/07/14 08:02:00;;;;;;;5.93;2.20;;;20.70;99.90;;;;;;5053601;28;20385;-52
2023/07/14 08:04:26;;;;;;;4.68;2.88;;;20.50;99.90;;;;;;5053594;28;20393;-50
2023/07/14 08:06:52;;;;;;;5.65;2.10;;;20.40;99.90;;;;;;5054140;28;20025;-51
2023/07/14 08:09:18;;;;;;;6.38;3.40;;;20.30;99.90;;;;;;5053895;28;20035;-52
2023/07/14 08:11:43;;;;;;;3.45;1.88;;;20.30;99.90;;;;;;5053764;28;20021;-52
2023/07/14 08:14:15;;;;;;;7.10;2.63;;;20.30;99.90;;;;;;5053339;28;20036;-50
2023/07/14 08:16:41;;;;;;;5.20;1.85;;;20.40;99.90;;;;;;5053655;28;20059;-52
2023/07/14 08:19:07;;;;;;;4.65;1.83;;;20.40;99.90;;;;;;5053550;28;20025;-49
2023/07/14 08:21:35;;;;;;;6.88;2.67;;;20.50;99.90;;;;;;5053108;28;20055;-51
2023/07/14 08:24:02;;;;;;;6.13;2.35;;;20.70;99.90;;;;;;5053536;28;20033;-50
2023/07/14 08:26:27;;;;;;;8.05;2.30;;;21.00;99.90;;;;;;5052898;28;20048;-50
2023/07/14 08:28:53;;;;;;;5.47;2.65;;;21.10;99.90;;;;;;5053267;28;20037;-52
2023/07/14 08:31:19;;;;;;;6.40;2.08;;;21.30;99.90;;;;;;5053603;28;20036;-52
2023/07/14 08:33:45;;;;;;;4.72;1.90;;;21.30;99.90;;;;;;5053372;28;20041;-52
2023/07/14 08:36:12;;;;;;;3.72;1.80;;;21.40;99.90;;;;;;5052779;28;20033;-49
2023/07/14 08:38:39;;;;;;;7.35;2.40;;;21.40;99.90;;;;;;5053397;28;20064;-53
2023/07/14 08:41:33;;;;;;;5.72;2.10;;;21.40;99.90;;;;;;5053324;28;20036;-52
2023/07/14 08:44:17;;;;;;;4.93;2.30;;;21.50;99.90;;;;;;5050868;28;20052;-50
2023/07/14 08:47:06;;;;;;;5.47;1.90;;;21.80;99.90;;;;;;5052878;28;20044;-52
2023/07/14 08:49:37;;;;;;;6.00;2.22;;;22.10;99.90;;;;;;5052759;28;20111;-51
2023/07/14 08:52:10;;;;;;;6.03;1.75;;;22.20;99.30;;;;;;5052354;28;20048;-51
2023/07/14 08:54:55;;;;;;;4.80;1.48;;;22.40;99.30;;;;;;5052848;28;20064;-51
2023/07/14 08:57:23;;;;;;;3.72;1.60;;;22.40;98.30;;;;;;5052762;28;20397;-51
2023/07/14 08:59:54;;;;;;;3.90;1.85;;;22.40;99.00;;;;;;5056804;28;20033;-51
2023/07/14 09:02:35;;;;;;;2.95;1.50;;;22.30;99.40;;;;;;5056301;28;20036;-52
2023/07/14 09:05:16;;;;;;;6.47;1.85;;;22.40;98.50;;;;;;5056670;28;20024;-52
2023/07/14 09:07:43;;;;;;;4.55;2.20;;;22.50;98.80;;;;;;5056659;28;20116;-52
2023/07/14 09:10:12;;;;;;;4.07;1.60;;;22.60;97.70;;;;;;5056534;28;20120;-52
2023/07/14 09:12:53;;;;;;;3.85;1.48;;;22.70;96.90;;;;;;5056184;28;20090;-52
2023/07/14 09:15:23;;;;;;;3.67;1.10;;;22.90;96.60;;;;;;5056489;28;20120;-52
2023/07/14 09:18:01;;;;;;;2.67;1.33;;;23.00;95.30;;;;;;5056226;28;20033;-52
2023/07/14 09:20:35;;;;;;;5.15;1.45;;;23.00;95.50;;;;;;5055768;28;20044;-50
2023/07/14 09:23:24;;;;;;;3.22;1.20;;;23.00;95.30;;;;;;5055942;28;20421;-52
2023/07/14 09:26:00;;;;;;;4.22;1.63;;;22.90;95.20;;;;;;5038047;28;20101;-51
2023/07/14 09:28:33;;;;;;;2.97;1.00;;;22.70;95.10;;;;;;5056237;28;20530;-50
2023/07/14 09:31:05;;;;;;;5.97;1.77;;;22.70;95.20;;;;;;5056194;28;20158;-52
2023/07/14 09:33:41;;;;;;;5.95;2.10;;;22.50;95.20;;;;;;5055442;28;20032;-49
2023/07/14 09:36:11;;;;;;;3.08;1.20;;;22.70;95.90;;;;;;5055616;28;20025;-52
2023/07/14 09:38:45;;;;;;;2.30;1.17;;;22.70;96.10;;;;;;5055783;28;20059;-50
2023/07/14 09:41:15;;;;;;;4.95;1.83;;;22.80;95.50;;;;;;5055520;28;20067;-49
2023/07/14 09:43:40;;;;;;;3.88;1.52;;;23.10;95.50;;;;;;5055481;28;20037;-49
2023/07/14 09:46:09;;;;;;;3.83;1.60;;;23.20;96.20;;;;;;5055478;28;20090;-50
2023/07/14 09:48:43;;;;;;;4.45;1.40;;;23.50;95.40;;;;;;5055653;28;20052;-51
2023/07/14 09:51:20;;;;;;;2.40;1.30;;;23.60;94.60;;;;;;5055807;28;20029;-51
2023/07/14 09:54:12;;;;;;;3.38;1.60;;;23.60;93.20;;;;;;5055296;28;20537;-51
2023/07/14 09:56:43;;;;;;;5.40;2.58;;;23.60;93.00;;;;;;5047642;28;20524;-52
2023/07/14 09:59:20;;;;;;;3.17;1.70;;;23.70;93.10;;;;;;5055678;28;20535;-52
2023/07/14 10:01:56;;;;;;;6.88;2.03;;;23.90;93.20;;;;;;5055082;28;20025;-51
2023/07/14 10:04:31;;;;;;;3.40;1.40;;;24.00;93.70;;;;;;5054863;28;20029;-51
2023/07/14 10:07:25;;;;;;;3.47;1.70;;;24.10;92.90;;;;;;5055127;28;20140;-52
2023/07/14 10:10:08;;;;;;;3.15;1.60;;;24.30;92.20;;;;;;5054165;28;20044;-51
2023/07/14 10:12:53;;;;;;;3.08;1.20;;;24.30;92.70;;;;;;5054920;28;20420;-47
2023/07/14 10:15:22;;;;;;;2.88;1.40;;;24.30;92.60;;;;;;5054711;28;20033;-50
2023/07/14 10:17:52;;;;;;;5.57;1.60;;;24.30;92.00;;;;;;5055209;28;20561;-48
2023/07/14 10:20:20;;;;;;;4.97;1.63;;;24.50;91.80;;;;;;5054910;28;20473;-52
2023/07/14 10:22:51;;;;;;;3.30;1.52;;;24.60;91.40;;;;;;5037234;28;20032;-52
2023/07/14 10:25:19;;;;;;;2.75;1.40;;;24.70;91.90;;;;;;5054449;28;20036;-49
2023/07/14 10:28:10;;;;;;;6.72;1.50;;;24.60;90.50;;;;;;5055309;28;20068;-51
2023/07/14 10:30:57;;;;;;;3.75;1.55;;;24.60;91.10;;;;;;5055366;28;20099;-53
2023/07/14 10:33:38;;;;;;;2.67;1.20;;;24.50;91.60;;;;;;5055031;28;20312;-50
2023/07/14 10:36:14;;;;;;;3.17;1.38;;;24.40;92.10;;;;;;5054811;28;20534;-51
2023/07/14 10:38:52;;;;;;;2.97;1.30;;;24.70;92.30;;;;;;5054544;28;20063;-51
2023/07/14 10:41:20;;;;;;;3.88;1.60;;;24.90;91.40;;;;;;5054475;28;20029;-52
2023/07/14 10:44:06;;;;;;;3.28;1.50;;;25.10;91.30;;;;;;5054543;28;20480;-51
2023/07/14 10:46:41;;;;;;;3.67;1.42;;;25.30;90.20;;;;;;5036307;28;20484;-52
2023/07/14 10:49:28;;;;;;;3.67;1.25;;;25.50;90.00;;;;;;5054276;28;20543;-51
2023/07/14 10:52:03;;;;;;;3.83;1.73;;;25.50;90.00;;;;;;5054198;28;20133;-47
2023/07/14 10:54:40;;;;;;;4.05;1.45;;;25.60;90.00;;;;;;5053961;28;20029;-52
2023/07/14 10:57:33;;;;;;;4.97;1.42;;;25.70;88.10;;;;;;5054270;28;20049;-49
2023/07/14 11:00:15;;;;;;;4.65;1.65;;;25.40;88.70;;;;;;5054068;28;20037;-50
2023/07/14 11:02:46;;;;;;;5.32;1.67;;;25.30;88.20;;;;;;5053449;28;20409;-50
2023/07/14 11:05:16;;;;;;;4.60;1.90;;;25.30;89.30;;;;;;5054046;28;20041;-51
2023/07/14 11:07:42;;;;;;;3.28;1.38;;;25.40;88.70;;;;;;5053965;28;20037;-52
2023/07/14 11:10:24;;;;;;;3.95;1.42;;;25.30;87.70;;;;;;5054020;28;20051;-49
2023/07/14 11:12:55;;;;;;;3.20;1.50;;;25.30;87.90;;;;;;5053490;28;20024;-52
2023/07/14 11:15:35;;;;;;;4.30;1.83;;;25.20;87.60;;;;;;5053856;28;20052;-51
2023/07/14 11:18:07;;;;;;;4.38;1.80;;;25.20;87.10;;;;;;5053886;28;20029;-51
2023/07/14 11:20:56;;;;;;;3.92;1.70;;;24.90;88.10;;;;;;5035694;28;20481;-51
2023/07/14 11:23:24;;;;;;;;;;;24.60;88.10;;;;;;5053159;28;20033;-50
2023/07/14 11:26:08;;;;;;;6.32;1.55;;;24.60;89.80;;;;;;5053563;28;19909;-48
2023/07/14 11:28:54;;;;;;;3.28;1.50;;;24.70;90.30;;;;;;5053668;28;20040;-51
2023/07/14 11:31:23;;;;;;;4.30;1.70;;;24.80;89.50;;;;;;5053411;28;20040;-50
2023/07/14 11:34:21;;;;;;;3.45;1.60;;;25.20;89.90;;;;;;5035396;28;20036;-52
2023/07/14 11:36:57;;;;;;;3.67;1.75;;;25.50;87.90;;;;;;4998540;28;20118;-51
2023/07/14 11:39:34;;;;;;;5.13;1.50;;;25.60;87.70;;;;;;5053422;28;20017;-52
2023/07/14 11:42:00;;;;;;;3.22;1.55;;;25.60;86.30;;;;;;5053108;28;20557;-50
2023/07/14 11:44:25;;;;;;;3.28;1.45;;;25.50;86.30;;;;;;5053465;28;20060;-49
2023/07/14 11:46:51;;;;;;;3.60;1.90;;;25.40;87.60;;;;;;5053219;28;20024;-51
2023/07/14 11:49:26;;;;;;;3.45;1.70;;;25.30;87.20;;;;;;5053473;28;20037;-51
2023/07/14 11:51:57;;;;;;;4.40;1.75;;;25.30;86.90;;;;;;5053088;28;20039;-48
2023/07/14 11:54:54;;;;;;;2.17;1.40;;;25.30;86.60;;;;;;5052955;28;20454;-51
2023/07/14 11:57:21;;;;;;;4.00;1.80;;;25.30;86.80;;;;;;5053309;28;20025;-53
2023/07/14 11:59:58;;;;;;;4.90;1.67;;;25.30;88.00;;;;;;5035452;28;20033;-49
2023/07/14 12:02:56;;;;;;;4.10;1.73;;;25.30;87.10;;;;;;5052940;28;20520;-49
2023/07/14 12:05:31;;;;;;;5.78;2.20;;;25.40;87.10;;;;;;5021657;28;20071;-51
2023/07/14 12:08:07;;;;;;;3.90;1.67;;;25.70;86.50;;;;;;5053275;28;20036;-52
2023/07/14 12:10:38;;;;;;;3.38;1.70;;;25.80;85.80;;;;;;5053756;28;20052;-49
2023/07/14 12:13:31;;;;;;;3.88;1.90;;;26.00;85.60;;;;;;5052976;28;20032;-49
2023/07/14 12:15:57;;;;;;;3.83;2.20;;;26.10;85.10;;;;;;5034913;28;20036;-53
2023/07/14 12:18:37;;;;;;;4.22;1.80;;;26.10;85.10;;;;;;5052819;28;20087;-52
2023/07/14 12:21:18;;;;;;;7.68;2.22;;;26.10;86.90;;;;;;5053325;28;20116;-53
2023/07/14 12:23:53;;;;;;;4.63;1.77;;;26.10;84.90;;;;;;5052925;28;20036;-49
2023/07/14 12:26:50;;;;;;;3.15;1.45;;;26.30;84.80;;;;;;5053399;28;20067;-53
2023/07/14 12:29:19;;;;;;;3.47;1.67;;;26.30;83.80;;;;;;5053175;28;20111;-51
2023/07/14 12:31:55;;;;;;;5.03;2.05;;;26.40;82.20;;;;;;5052975;28;20513;-50
2023/07/14 12:34:27;;;;;;;6.70;1.88;;;26.40;81.70;;;;;;5056397;28;20060;-48
2023/07/14 12:36:52;;;;;;;4.82;1.52;;;26.30;82.80;;;;;;5056844;28;20100;-53
2023/07/14 12:39:18;;;;;;;4.38;1.52;;;26.30;82.60;;;;;;5057162;28;20067;-50
2023/07/14 12:41:49;;;;;;;3.58;1.77;;;26.20;83.60;;;;;;5057181;28;20052;-52
2023/07/14 12:44:33;;;;;;;3.35;1.73;;;26.20;85.30;;;;;;5056781;28;20040;-53
2023/07/14 12:47:00;;;;;;;3.42;1.80;;;26.40;82.80;;;;;;5057094;28;20025;-52
2023/07/14 12:49:40;;;;;;;3.97;1.60;;;26.50;81.50;;;;;;5057367;28;20068;-50
2023/07/14 12:52:12;;;;;;;3.38;1.73;;;26.50;82.10;;;;;;5056852;28;20037;-48
2023/07/14 12:54:45;;;;;;;5.07;1.67;;;26.20;82.90;;;;;;5056643;28;20067;-49
2023/07/14 12:57:14;;;;;;;3.75;1.70;;;26.30;84.50;;;;;;5057495;28;20035;-50
2023/07/14 12:59:40;;;;;;;3.63;1.65;;;26.40;80.90;;;;;;5022608;28;20465;-48
2023/07/14 13:02:12;;;;;;;5.55;2.72;;;26.40;79.90;;;;;;5055755;28;20029;-50
2023/07/14 13:04:39;;;;;;;3.17;1.77;;;26.30;80.20;;;;;;5056158;28;20032;-51